sensor_id;sensor_type;location;lat;lon;timestamp;pressure;altitude;pressure_sealevel;temperature;humidity
67697;BME280;54486;51.442;6.778;2023-11-21T00:01:33;77446.44;;;-141.21;100.00
67697;BME280;54486;51.442;6.778;2023-11-21T00:04:00;77444.44;;;-141.21;100.00
67697;BME280;54486;51.442;6.778;2023-11-21T00:06:28;77446.44;;;-141.21;100.00
67697;BME280;54486;51.442;6.778;2023-11-21T00:08:57;77442.44;;;-141.21;100.00
67697;BME280;54486;51.442;6.778;2023-11-21T00:11:24;77438.44;;;-141.21;100.00
67697;BME280;54486;51.442;6.778;2023-11-21T00:13:52;77438.44;;;-141.21;100.00
67697;BME280;54486;51.442;6.778;2023-11-21T00:16:19;77442.44;;;-141.21;100.00
67697;BME280;54486;51.442;6.778;2023-11-21T00:18:47;77446.44;;;-141.21;100.00
67697;BME280;54486;51.442;6.778;2023-11-21T00:21:15;77458.44;;;-141.21;100.00
67697;BME280;54486;51.442;6.778;2023-11-21T00:23:42;77454.44;;;-141.21;100.00
67697;BME280;54486;51.442;6.778;2023-11-21T00:26:10;77460.44;;;-141.21;100.00
67697;BME280;54486;51.442;6.778;2023-11-21T00:28:37;77458.44;;;-141.21;100.00
67697;BME280;54486;51.442;6.778;2023-11-21T00:31:06;77458.44;;;-141.21;100.00
67697;BME280;54486;51.442;6.778;2023-11-21T00:33:34;77462.44;;;-141.21;100.00
67697;BME280;54486;51.442;6.778;2023-11-21T00:36:01;77462.44;;;-141.21;100.00
67697;BME280;54486;51.442;6.778;2023-11-21T00:38:30;77462.44;;;-141.21;100.00
67697;BME280;54486;51.442;6.778;2023-11-21T00:40:59;77470.47;;;-141.21;100.00
67697;BME280;54486;51.442;6.778;2023-11-21T00:43:26;77466.44;;;-141.21;100.00
67697;BME280;54486;51.442;6.778;2023-11-21T00:45:53;77478.47;;;-141.21;100.00
67697;BME280;54486;51.442;6.778;2023-11-21T00:48:21;77478.47;;;-141.21;100.00
67697;BME280;54486;51.442;6.778;2023-11-21T00:50:48;77482.47;;;-141.21;100.00
67697;BME280;54486;51.442;6.778;2023-11-21T00:53:16;77490.47;;;-141.21;100.00
67697;BME280;54486;51.442;6.778;2023-11-21T00:55:43;77490.47;;;-141.21;100.00
67697;BME280;54486;51.442;6.778;2023-11-21T00:58:11;77498.47;;;-141.21;100.00
67697;BME280;54486;51.442;6.778;2023-11-21T01:00:39;77500.47;;;-141.21;100.00
67697;BME280;54486;51.442;6.778;2023-11-21T01:03:07;77502.47;;;-141.21;100.00
67697;BME280;54486;51.442;6.778;2023-11-21T01:05:35;77510.50;;;-141.21;100.00
67697;BME280;54486;51.442;6.778;2023-11-21T01:08:02;77514.50;;;-141.21;100.00
67697;BME280;54486;51.442;6.778;2023-11-21T01:10:30;77520.50;;;-141.21;100.00
67697;BME280;54486;51.442;6.778;2023-11-21T01:12:57;77522.50;;;-141.21;100.00
67697;BME280;54486;51.442;6.778;2023-11-21T01:15:25;77530.50;;;-141.21;100.00
67697;BME280;54486;51.442;6.778;2023-11-21T01:17:52;77530.50;;;-141.21;100.00
67697;BME280;54486;51.442;6.778;2023-11-21T01:20:20;77526.50;;;-141.21;100.00
67697;BME280;54486;51.442;6.778;2023-11-21T01:22:47;77524.50;;;-141.21;100.00
67697;BME280;54486;51.442;6.778;2023-11-21T01:25:16;77526.50;;;-141.21;100.00
67697;BME280;54486;51.442;6.778;2023-11-21T01:27:43;77522.50;;;-141.21;100.00
67697;BME280;54486;51.442;6.778;2023-11-21T01:30:10;77522.50;;;-141.21;100.00
67697;BME280;54486;51.442;6.778;2023-11-21T01:32:38;77524.50;;;-141.21;100.00
67697;BME280;54486;51.442;6.778;2023-11-21T01:35:07;77522.50;;;-141.21;100.00
67697;BME280;54486;51.442;6.778;2023-11-21T01:37:34;77510.50;;;-141.21;100.00
67697;BME280;54486;51.442;6.778;2023-11-21T01:40:01;77506.50;;;-141.21;100.00
67697;BME280;54486;51.442;6.778;2023-11-21T01:42:29;77502.47;;;-141.21;100.00
67697;BME280;54486;51.442;6.778;2023-11-21T01:44:56;77498.47;;;-141.21;100.00
67697;BME280;54486;51.442;6.778;2023-11-21T01:47:23;77502.47;;;-141.21;100.00
67697;BME280;54486;51.442;6.778;2023-11-21T01:49:50;77498.47;;;-141.21;100.00
67697;BME280;54486;51.442;6.778;2023-11-21T01:52:20;77498.47;;;-141.21;100.00
67697;BME280;54486;51.442;6.778;2023-11-21T01:54:47;77494.47;;;-141.21;100.00
67697;BME280;54486;51.442;6.778;2023-11-21T01:57:15;77496.47;;;-141.21;100.00
67697;BME280;54486;51.442;6.778;2023-11-21T01:59:43;77494.47;;;-141.21;100.00
67697;BME280;54486;51.442;6.778;2023-11-21T02:02:11;77490.47;;;-141.21;100.00
67697;BME280;54486;51.442;6.778;2023-11-21T02:04:38;77494.47;;;-141.21;100.00
67697;BME280;54486;51.442;6.778;2023-11-21T02:07:05;77494.47;;;-141.21;100.00
67697;BME280;54486;51.442;6.778;2023-11-21T02:09:33;77488.47;;;-141.21;100.00
67697;BME280;54486;51.442;6.778;2023-11-21T02:12:02;77486.47;;;-141.21;100.00
67697;BME280;54486;51.442;6.778;2023-11-21T02:14:29;77490.47;;;-141.21;100.00
67697;BME280;54486;51.442;6.778;2023-11-21T02:16:58;77488.47;;;-141.21;100.00
67697;BME280;54486;51.442;6.778;2023-11-21T02:19:24;77492.47;;;-141.21;100.00
67697;BME280;54486;51.442;6.778;2023-11-21T02:21:57;77478.47;;;-141.21;100.00
67697;BME280;54486;51.442;6.778;2023-11-21T02:24:28;77490.47;;;-141.21;100.00
67697;BME280;54486;51.442;6.778;2023-11-21T02:26:57;77484.47;;;-141.21;100.00
67697;BME280;54486;51.442;6.778;2023-11-21T02:29:24;77482.47;;;-141.21;100.00
67697;BME280;54486;51.442;6.778;2023-11-21T02:31:55;77484.47;;;-141.21;100.00
67697;BME280;54486;51.442;6.778;2023-11-21T02:34:23;77490.47;;;-141.21;100.00
67697;BME280;54486;51.442;6.778;2023-11-21T02:36:52;77482.47;;;-141.21;100.00
67697;BME280;54486;51.442;6.778;2023-11-21T02:39:21;77478.47;;;-141.21;100.00
67697;BME280;54486;51.442;6.778;2023-11-21T02:41:51;77474.47;;;-141.21;100.00
67697;BME280;54486;51.442;6.778;2023-11-21T02:44:18;77474.47;;;-141.21;100.00
67697;BME280;54486;51.442;6.778;2023-11-21T02:46:46;77474.47;;;-141.21;100.00
67697;BME280;54486;51.442;6.778;2023-11-21T02:49:14;77474.47;;;-141.21;100.00
67697;BME280;54486;51.442;6.778;2023-11-21T02:51:41;77474.47;;;-141.21;100.00
67697;BME280;54486;51.442;6.778;2023-11-21T02:54:08;77470.47;;;-141.21;100.00
67697;BME280;54486;51.442;6.778;2023-11-21T02:56:35;77472.47;;;-141.21;100.00
67697;BME280;54486;51.442;6.778;2023-11-21T02:59:02;77470.47;;;-141.21;100.00
67697;BME280;54486;51.442;6.778;2023-11-21T03:01:30;77474.47;;;-141.21;100.00
67697;BME280;54486;51.442;6.778;2023-11-21T03:03:58;77472.47;;;-141.21;100.00
67697;BME280;54486;51.442;6.778;2023-11-21T03:06:25;77470.47;;;-141.21;100.00
67697;BME280;54486;51.442;6.778;2023-11-21T03:08:53;77470.47;;;-141.21;100.00
67697;BME280;54486;51.442;6.778;2023-11-21T03:11:20;77474.47;;;-141.21;100.00
67697;BME280;54486;51.442;6.778;2023-11-21T03:13:48;77476.47;;;-141.21;100.00
67697;BME280;54486;51.442;6.778;2023-11-21T03:16:16;77474.47;;;-141.21;100.00
67697;BME280;54486;51.442;6.778;2023-11-21T03:18:44;77474.47;;;-141.21;100.00
67697;BME280;54486;51.442;6.778;2023-11-21T03:21:11;77476.47;;;-141.21;100.00
67697;BME280;54486;51.442;6.778;2023-11-21T03:23:39;77478.47;;;-141.21;100.00
67697;BME280;54486;51.442;6.778;2023-11-21T03:26:11;77476.47;;;-141.21;100.00
67697;BME280;54486;51.442;6.778;2023-11-21T03:28:39;77478.47;;;-141.21;100.00
67697;BME280;54486;51.442;6.778;2023-11-21T03:31:07;77478.47;;;-141.21;100.00
67697;BME280;54486;51.442;6.778;2023-11-21T03:33:35;77486.47;;;-141.21;100.00
67697;BME280;54486;51.442;6.778;2023-11-21T03:36:02;77490.47;;;-141.21;100.00
67697;BME280;54486;51.442;6.778;2023-11-21T03:38:30;77492.47;;;-141.21;100.00
67697;BME280;54486;51.442;6.778;2023-11-21T03:40:58;77494.47;;;-141.21;100.00
67697;BME280;54486;51.442;6.778;2023-11-21T03:43:25;77498.47;;;-141.21;100.00
67697;BME280;54486;51.442;6.778;2023-11-21T03:45:52;77490.47;;;-141.21;100.00
67697;BME280;54486;51.442;6.778;2023-11-21T03:48:20;77490.47;;;-141.21;100.00
67697;BME280;54486;51.442;6.778;2023-11-21T03:50:47;77490.47;;;-141.21;100.00
67697;BME280;54486;51.442;6.778;2023-11-21T03:53:14;77494.47;;;-141.21;100.00
67697;BME280;54486;51.442;6.778;2023-11-21T03:55:41;77498.47;;;-141.21;100.00
67697;BME280;54486;51.442;6.778;2023-11-21T03:58:08;77498.47;;;-141.21;100.00
67697;BME280;54486;51.442;6.778;2023-11-21T04:00:36;77498.47;;;-141.21;100.00
67697;BME280;54486;51.442;6.778;2023-11-21T04:03:02;77500.47;;;-141.21;100.00
67697;BME280;54486;51.442;6.778;2023-11-21T04:05:30;77504.47;;;-141.21;100.00
67697;BME280;54486;51.442;6.778;2023-11-21T04:07:58;77502.47;;;-141.21;100.00
67697;BME280;54486;51.442;6.778;2023-11-21T04:10:26;77506.50;;;-141.21;100.00
67697;BME280;54486;51.442;6.778;2023-11-21T04:12:53;77506.50;;;-141.21;100.00
67697;BME280;54486;51.442;6.778;2023-11-21T04:15:20;77498.47;;;-141.21;100.00
67697;BME280;54486;51.442;6.778;2023-11-21T04:17:47;77510.50;;;-141.21;100.00
67697;BME280;54486;51.442;6.778;2023-11-21T04:20:15;77510.50;;;-141.21;100.00
67697;BME280;54486;51.442;6.778;2023-11-21T04:22:43;77504.47;;;-141.21;100.00
67697;BME280;54486;51.442;6.778;2023-11-21T04:25:14;77512.50;;;-141.21;100.00
67697;BME280;54486;51.442;6.778;2023-11-21T04:27:42;77510.50;;;-141.21;100.00
67697;BME280;54486;51.442;6.778;2023-11-21T04:30:13;77510.50;;;-141.21;100.00
67697;BME280;54486;51.442;6.778;2023-11-21T04:32:41;77508.50;;;-141.21;100.00
67697;BME280;54486;51.442;6.778;2023-11-21T04:35:11;77510.50;;;-141.21;100.00
67697;BME280;54486;51.442;6.778;2023-11-21T04:37:38;77510.50;;;-141.21;100.00
67697;BME280;54486;51.442;6.778;2023-11-21T04:40:06;77514.50;;;-141.21;100.00
67697;BME280;54486;51.442;6.778;2023-11-21T04:42:35;77514.50;;;-141.21;100.00
67697;BME280;54486;51.442;6.778;2023-11-21T04:45:04;77522.50;;;-141.21;100.00
67697;BME280;54486;51.442;6.778;2023-11-21T04:47:36;77530.50;;;-141.21;100.00
67697;BME280;54486;51.442;6.778;2023-11-21T04:50:04;77530.50;;;-141.21;100.00
67697;BME280;54486;51.442;6.778;2023-11-21T04:52:31;77530.50;;;-141.21;100.00
67697;BME280;54486;51.442;6.778;2023-11-21T04:55:00;77530.50;;;-141.21;100.00
67697;BME280;54486;51.442;6.778;2023-11-21T04:57:28;77530.50;;;-141.21;100.00
67697;BME280;54486;51.442;6.778;2023-11-21T04:59:56;77536.50;;;-141.21;100.00
67697;BME280;54486;51.442;6.778;2023-11-21T05:02:23;77530.50;;;-141.21;100.00
67697;BME280;54486;51.442;6.778;2023-11-21T05:05:02;77530.50;;;-141.21;100.00
67697;BME280;54486;51.442;6.778;2023-11-21T05:07:29;77534.50;;;-141.21;100.00
67697;BME280;54486;51.442;6.778;2023-11-21T05:09:58;77534.50;;;-141.21;100.00
67697;BME280;54486;51.442;6.778;2023-11-21T05:12:25;77534.50;;;-141.21;100.00
67697;BME280;54486;51.442;6.778;2023-11-21T05:14:52;77532.50;;;-141.21;100.00
67697;BME280;54486;51.442;6.778;2023-11-21T05:17:19;77534.50;;;-141.21;100.00
67697;BME280;54486;51.442;6.778;2023-11-21T05:19:47;77532.50;;;-141.21;100.00
67697;BME280;54486;51.442;6.778;2023-11-21T05:22:16;77534.50;;;-141.21;100.00
67697;BME280;54486;51.442;6.778;2023-11-21T05:24:43;77542.53;;;-141.21;100.00
67697;BME280;54486;51.442;6.778;2023-11-21T05:27:10;77538.53;;;-141.21;100.00
67697;BME280;54486;51.442;6.778;2023-11-21T05:29:38;77544.53;;;-141.21;100.00
67697;BME280;54486;51.442;6.778;2023-11-21T05:32:05;77550.53;;;-141.21;100.00
67697;BME280;54486;51.442;6.778;2023-11-21T05:34:32;77554.53;;;-141.21;100.00
67697;BME280;54486;51.442;6.778;2023-11-21T05:36:59;77564.53;;;-141.21;100.00
67697;BME280;54486;51.442;6.778;2023-11-21T05:39:26;77566.53;;;-141.21;100.00
67697;BME280;54486;51.442;6.778;2023-11-21T05:41:56;77578.56;;;-141.21;100.00
67697;BME280;54486;51.442;6.778;2023-11-21T05:44:24;77578.56;;;-141.21;100.00
67697;BME280;54486;51.442;6.778;2023-11-21T05:46:51;77586.56;;;-141.21;100.00
67697;BME280;54486;51.442;6.778;2023-11-21T05:49:19;77582.56;;;-141.21;100.00
67697;BME280;54486;51.442;6.778;2023-11-21T05:51:48;77582.56;;;-141.21;100.00
67697;BME280;54486;51.442;6.778;2023-11-21T05:54:16;77594.56;;;-141.21;100.00
67697;BME280;54486;51.442;6.778;2023-11-21T05:56:44;77598.56;;;-141.21;100.00
67697;BME280;54486;51.442;6.778;2023-11-21T05:59:11;77602.56;;;-141.21;100.00
67697;BME280;54486;51.442;6.778;2023-11-21T06:01:38;77602.56;;;-141.21;100.00
67697;BME280;54486;51.442;6.778;2023-11-21T06:04:05;77614.59;;;-141.21;100.00
67697;BME280;54486;51.442;6.778;2023-11-21T06:06:32;77618.59;;;-141.21;100.00
67697;BME280;54486;51.442;6.778;2023-11-21T06:08:59;77622.59;;;-141.21;100.00
67697;BME280;54486;51.442;6.778;2023-11-21T06:11:26;77622.59;;;-141.21;100.00
67697;BME280;54486;51.442;6.778;2023-11-21T06:13:54;77626.59;;;-141.21;100.00
67697;BME280;54486;51.442;6.778;2023-11-21T06:16:21;77626.59;;;-141.21;100.00
67697;BME280;54486;51.442;6.778;2023-11-21T06:18:48;77634.59;;;-141.21;100.00
67697;BME280;54486;51.442;6.778;2023-11-21T06:21:15;77636.59;;;-141.21;100.00
67697;BME280;54486;51.442;6.778;2023-11-21T06:23:43;77638.59;;;-141.21;100.00
67697;BME280;54486;51.442;6.778;2023-11-21T06:26:10;77646.63;;;-141.21;100.00
67697;BME280;54486;51.442;6.778;2023-11-21T06:28:38;77648.63;;;-141.21;100.00
67697;BME280;54486;51.442;6.778;2023-11-21T06:31:05;77656.63;;;-141.21;100.00
67697;BME280;54486;51.442;6.778;2023-11-21T06:33:32;77662.63;;;-141.21;100.00
67697;BME280;54486;51.442;6.778;2023-11-21T06:36:00;77664.63;;;-141.21;100.00
67697;BME280;54486;51.442;6.778;2023-11-21T06:38:29;77662.63;;;-141.21;100.00
67697;BME280;54486;51.442;6.778;2023-11-21T06:40:56;77662.63;;;-141.21;100.00
67697;BME280;54486;51.442;6.778;2023-11-21T06:43:25;77666.63;;;-141.21;100.00
67697;BME280;54486;51.442;6.778;2023-11-21T06:45:52;77666.63;;;-141.21;100.00
67697;BME280;54486;51.442;6.778;2023-11-21T06:48:19;77666.63;;;-141.21;100.00
67697;BME280;54486;51.442;6.778;2023-11-21T06:50:47;77664.63;;;-141.21;100.00
67697;BME280;54486;51.442;6.778;2023-11-21T06:53:15;77668.63;;;-141.21;100.00
67697;BME280;54486;51.442;6.778;2023-11-21T06:55:42;77666.63;;;-141.21;100.00
67697;BME280;54486;51.442;6.778;2023-11-21T06:58:09;77672.63;;;-141.21;100.00
67697;BME280;54486;51.442;6.778;2023-11-21T07:00:36;77674.66;;;-141.21;100.00
67697;BME280;54486;51.442;6.778;2023-11-21T07:03:03;77674.66;;;-141.21;100.00
67697;BME280;54486;51.442;6.778;2023-11-21T07:05:30;77678.66;;;-141.21;100.00
67697;BME280;54486;51.442;6.778;2023-11-21T07:07:57;77674.66;;;-141.21;100.00
67697;BME280;54486;51.442;6.778;2023-11-21T07:10:32;77682.66;;;-141.21;100.00
67697;BME280;54486;51.442;6.778;2023-11-21T07:12:59;77682.66;;;-141.21;100.00
67697;BME280;54486;51.442;6.778;2023-11-21T07:15:26;77684.66;;;-141.21;100.00
67697;BME280;54486;51.442;6.778;2023-11-21T07:17:53;77688.66;;;-141.21;100.00
67697;BME280;54486;51.442;6.778;2023-11-21T07:20:21;77686.66;;;-141.21;100.00
67697;BME280;54486;51.442;6.778;2023-11-21T07:22:48;77684.66;;;-141.21;100.00
67697;BME280;54486;51.442;6.778;2023-11-21T07:25:16;77682.66;;;-141.21;100.00
67697;BME280;54486;51.442;6.778;2023-11-21T07:27:43;77678.66;;;-141.21;100.00
67697;BME280;54486;51.442;6.778;2023-11-21T07:30:11;77678.66;;;-141.21;100.00
67697;BME280;54486;51.442;6.778;2023-11-21T07:32:40;77682.66;;;-141.21;100.00
67697;BME280;54486;51.442;6.778;2023-11-21T07:35:08;77678.66;;;-141.21;100.00
67697;BME280;54486;51.442;6.778;2023-11-21T07:37:36;77672.63;;;-141.21;100.00
67697;BME280;54486;51.442;6.778;2023-11-21T07:40:04;77676.66;;;-141.21;100.00
67697;BME280;54486;51.442;6.778;2023-11-21T07:42:31;77682.66;;;-141.21;100.00
67697;BME280;54486;51.442;6.778;2023-11-21T07:44:58;77678.66;;;-141.21;100.00
67697;BME280;54486;51.442;6.778;2023-11-21T07:47:25;77682.66;;;-141.21;100.00
67697;BME280;54486;51.442;6.778;2023-11-21T07:49:54;77682.66;;;-141.21;100.00
67697;BME280;54486;51.442;6.778;2023-11-21T07:52:23;77682.66;;;-141.21;100.00
67697;BME280;54486;51.442;6.778;2023-11-21T07:54:50;77682.66;;;-141.21;100.00
67697;BME280;54486;51.442;6.778;2023-11-21T07:57:18;77674.66;;;-141.21;100.00
67697;BME280;54486;51.442;6.778;2023-11-21T07:59:45;77682.66;;;-141.21;100.00
67697;BME280;54486;51.442;6.778;2023-11-21T08:02:12;77678.66;;;-141.21;100.00
67697;BME280;54486;51.442;6.778;2023-11-21T08:04:39;77674.66;;;-141.21;100.00
67697;BME280;54486;51.442;6.778;2023-11-21T08:07:06;77674.66;;;-141.21;100.00
67697;BME280;54486;51.442;6.778;2023-11-21T08:09:33;77682.66;;;-141.21;100.00
67697;BME280;54486;51.442;6.778;2023-11-21T08:12:01;77680.66;;;-141.21;100.00
67697;BME280;54486;51.442;6.778;2023-11-21T08:14:29;77694.66;;;-141.21;100.00
67697;BME280;54486;51.442;6.778;2023-11-21T08:16:56;77690.66;;;-141.21;100.00
67697;BME280;54486;51.442;6.778;2023-11-21T08:19:24;77694.66;;;-141.21;100.00
67697;BME280;54486;51.442;6.778;2023-11-21T08:21:52;77694.66;;;-141.21;100.00
67697;BME280;54486;51.442;6.778;2023-11-21T08:24:21;77702.66;;;-141.21;100.00
67697;BME280;54486;51.442;6.778;2023-11-21T08:26:49;77710.69;;;-141.21;100.00
67697;BME280;54486;51.442;6.778;2023-11-21T08:29:16;77702.66;;;-141.21;100.00
67697;BME280;54486;51.442;6.778;2023-11-21T08:31:44;77702.66;;;-141.21;100.00
67697;BME280;54486;51.442;6.778;2023-11-21T08:34:13;77706.66;;;-141.21;100.00
67697;BME280;54486;51.442;6.778;2023-11-21T08:36:42;77706.66;;;-141.21;100.00
67697;BME280;54486;51.442;6.778;2023-11-21T08:39:10;77694.66;;;-141.21;100.00
67697;BME280;54486;51.442;6.778;2023-11-21T08:41:36;77690.66;;;-141.21;100.00
67697;BME280;54486;51.442;6.778;2023-11-21T08:44:03;77686.66;;;-141.21;100.00
67697;BME280;54486;51.442;6.778;2023-11-21T08:46:34;77686.66;;;-141.21;100.00
67697;BME280;54486;51.442;6.778;2023-11-21T08:49:04;77684.66;;;-141.21;100.00
67697;BME280;54486;51.442;6.778;2023-11-21T08:51:32;77682.66;;;-141.21;100.00
67697;BME280;54486;51.442;6.778;2023-11-21T08:54:00;77682.66;;;-141.21;100.00
67697;BME280;54486;51.442;6.778;2023-11-21T08:56:31;77686.66;;;-141.21;100.00
67697;BME280;54486;51.442;6.778;2023-11-21T08:58:58;77686.66;;;-141.21;100.00
67697;BME280;54486;51.442;6.778;2023-11-21T09:01:27;77686.66;;;-141.21;100.00
67697;BME280;54486;51.442;6.778;2023-11-21T09:03:55;77690.66;;;-141.21;100.00
67697;BME280;54486;51.442;6.778;2023-11-21T09:06:22;77686.66;;;-141.21;100.00
67697;BME280;54486;51.442;6.778;2023-11-21T09:08:50;77694.66;;;-141.21;100.00
67697;BME280;54486;51.442;6.778;2023-11-21T09:11:18;77702.66;;;-141.21;100.00
67697;BME280;54486;51.442;6.778;2023-11-21T09:13:46;77706.66;;;-141.21;100.00
67697;BME280;54486;51.442;6.778;2023-11-21T09:16:14;77706.66;;;-141.21;100.00
67697;BME280;54486;51.442;6.778;2023-11-21T09:18:42;77708.69;;;-141.21;100.00
67697;BME280;54486;51.442;6.778;2023-11-21T09:21:09;77710.69;;;-141.21;100.00
67697;BME280;54486;51.442;6.778;2023-11-21T09:23:36;77704.66;;;-141.21;100.00
67697;BME280;54486;51.442;6.778;2023-11-21T09:26:03;77698.66;;;-141.21;100.00
67697;BME280;54486;51.442;6.778;2023-11-21T09:28:32;77694.66;;;-141.21;100.00
67697;BME280;54486;51.442;6.778;2023-11-21T09:30:59;77694.66;;;-141.21;100.00
67697;BME280;54486;51.442;6.778;2023-11-21T09:33:26;77686.66;;;-141.21;100.00
67697;BME280;54486;51.442;6.778;2023-11-21T09:35:53;77690.66;;;-141.21;100.00
67697;BME280;54486;51.442;6.778;2023-11-21T09:38:20;77694.66;;;-141.21;100.00
67697;BME280;54486;51.442;6.778;2023-11-21T09:40:49;77690.66;;;-141.21;100.00
67697;BME280;54486;51.442;6.778;2023-11-21T09:43:17;77690.66;;;-141.21;100.00
67697;BME280;54486;51.442;6.778;2023-11-21T09:45:47;77688.66;;;-141.21;100.00
67697;BME280;54486;51.442;6.778;2023-11-21T09:48:18;77690.66;;;-141.21;100.00
67697;BME280;54486;51.442;6.778;2023-11-21T09:50:47;77692.66;;;-141.21;100.00
67697;BME280;54486;51.442;6.778;2023-11-21T09:53:19;77690.66;;;-141.21;100.00
67697;BME280;54486;51.442;6.778;2023-11-21T09:55:53;77696.66;;;-141.21;100.00
67697;BME280;54486;51.442;6.778;2023-11-21T09:58:20;77698.66;;;-141.21;100.00
67697;BME280;54486;51.442;6.778;2023-11-21T10:00:57;77694.66;;;-141.21;100.00
67697;BME280;54486;51.442;6.778;2023-11-21T10:03:26;77696.66;;;-141.21;100.00
67697;BME280;54486;51.442;6.778;2023-11-21T10:05:56;77692.66;;;-141.21;100.00
67697;BME280;54486;51.442;6.778;2023-11-21T10:08:26;77686.66;;;-141.21;100.00
67697;BME280;54486;51.442;6.778;2023-11-21T10:11:13;77686.66;;;-141.21;100.00
67697;BME280;54486;51.442;6.778;2023-11-21T10:13:41;77674.66;;;-141.21;100.00
67697;BME280;54486;51.442;6.778;2023-11-21T10:16:13;77662.63;;;-141.21;100.00
67697;BME280;54486;51.442;6.778;2023-11-21T10:18:43;77658.63;;;-141.21;100.00
67697;BME280;54486;51.442;6.778;2023-11-21T10:21:11;77658.63;;;-141.21;100.00
67697;BME280;54486;51.442;6.778;2023-11-21T10:23:39;77652.63;;;-141.21;100.00
67697;BME280;54486;51.442;6.778;2023-11-21T10:26:09;77664.63;;;-141.21;100.00
67697;BME280;54486;51.442;6.778;2023-11-21T10:29:00;77670.63;;;-141.21;100.00
67697;BME280;54486;51.442;6.778;2023-11-21T10:31:27;77670.63;;;-141.21;99.83
67697;BME280;54486;51.442;6.778;2023-11-21T10:34:16;77670.63;;;-141.21;99.39
67697;BME280;54486;51.442;6.778;2023-11-21T10:36:44;77672.63;;;-141.21;99.40
67697;BME280;54486;51.442;6.778;2023-11-21T10:39:19;77664.63;;;-141.21;99.80
67697;BME280;54486;51.442;6.778;2023-11-21T10:41:47;77666.63;;;-141.21;99.97
67697;BME280;54486;51.442;6.778;2023-11-21T10:44:17;77650.63;;;-141.21;100.00
67697;BME280;54486;51.442;6.778;2023-11-21T10:46:53;77654.63;;;-141.21;99.92
67697;BME280;54486;51.442;6.778;2023-11-21T10:49:26;77662.63;;;-141.21;98.85
67697;BME280;54486;51.442;6.778;2023-11-21T10:51:55;77662.63;;;-141.21;98.58
67697;BME280;54486;51.442;6.778;2023-11-21T10:54:25;77654.63;;;-141.21;98.66
67697;BME280;54486;51.442;6.778;2023-11-21T10:57:00;77642.63;;;-141.21;98.93
67697;BME280;54486;51.442;6.778;2023-11-21T10:59:30;77630.59;;;-141.21;98.92
67697;BME280;54486;51.442;6.778;2023-11-21T11:01:59;77622.59;;;-141.21;98.40
67697;BME280;54486;51.442;6.778;2023-11-21T11:04:30;77616.59;;;-141.21;97.58
67697;BME280;54486;51.442;6.778;2023-11-21T11:07:01;77618.59;;;-141.21;96.38
67697;BME280;54486;51.442;6.778;2023-11-21T11:09:32;77622.59;;;-141.21;95.90
67697;BME280;54486;51.442;6.778;2023-11-21T11:12:03;77622.59;;;-141.21;95.89
67697;BME280;54486;51.442;6.778;2023-11-21T11:14:35;77616.59;;;-141.21;96.16
67697;BME280;54486;51.442;6.778;2023-11-21T11:17:03;77614.59;;;-141.21;96.43
67697;BME280;54486;51.442;6.778;2023-11-21T11:19:33;77614.59;;;-141.21;96.58
67697;BME280;54486;51.442;6.778;2023-11-21T11:28:00;77618.59;;;-141.21;95.81
67697;BME280;54486;51.442;6.778;2023-11-21T11:31:04;77624.59;;;-141.21;95.27
67697;BME280;54486;51.442;6.778;2023-11-21T11:33:42;77638.59;;;-141.21;95.44
67697;BME280;54486;51.442;6.778;2023-11-21T11:36:23;77638.59;;;-141.21;95.70
67697;BME280;54486;51.442;6.778;2023-11-21T11:38:52;77654.63;;;-141.21;95.57
67697;BME280;54486;51.442;6.778;2023-11-21T11:41:30;77666.63;;;-141.21;95.58
67697;BME280;54486;51.442;6.778;2023-11-21T11:44:01;77664.63;;;-141.21;95.83
67697;BME280;54486;51.442;6.778;2023-11-21T11:46:42;77662.63;;;-141.21;96.19
67697;BME280;54486;51.442;6.778;2023-11-21T11:49:10;77654.63;;;-141.21;96.53
67697;BME280;54486;51.442;6.778;2023-11-21T11:51:38;77646.63;;;-141.21;96.73
67697;BME280;54486;51.442;6.778;2023-11-21T11:54:06;77658.63;;;-141.21;95.86
67697;BME280;54486;51.442;6.778;2023-11-21T11:56:34;77650.63;;;-141.21;96.09
67697;BME280;54486;51.442;6.778;2023-11-21T11:59:03;77654.63;;;-141.21;96.13
67697;BME280;54486;51.442;6.778;2023-11-21T12:01:33;77654.63;;;-141.21;96.07
67697;BME280;54486;51.442;6.778;2023-11-21T12:07:01;77634.59;;;-141.21;96.68
67697;BME280;54486;51.442;6.778;2023-11-21T12:09:31;77630.59;;;-141.21;96.06
67697;BME280;54486;51.442;6.778;2023-11-21T12:11:58;77632.59;;;-141.21;95.57
67697;BME280;54486;51.442;6.778;2023-11-21T12:14:26;77622.59;;;-141.21;95.49
67697;BME280;54486;51.442;6.778;2023-11-21T12:16:54;77610.59;;;-141.21;95.73
67697;BME280;54486;51.442;6.778;2023-11-21T12:19:22;77602.56;;;-141.21;95.45
67697;BME280;54486;51.442;6.778;2023-11-21T12:21:49;77602.56;;;-141.21;95.20
67697;BME280;54486;51.442;6.778;2023-11-21T12:24:16;77594.56;;;-141.21;94.92
67697;BME280;54486;51.442;6.778;2023-11-21T12:26:44;77586.56;;;-141.21;95.12
67697;BME280;54486;51.442;6.778;2023-11-21T12:29:11;77586.56;;;-141.21;95.36
67697;BME280;54486;51.442;6.778;2023-11-21T12:31:40;77586.56;;;-141.21;94.63
67697;BME280;54486;51.442;6.778;2023-11-21T12:34:07;77582.56;;;-141.21;94.32
67697;BME280;54486;51.442;6.778;2023-11-21T12:36:39;77574.56;;;-141.21;94.35
67697;BME280;54486;51.442;6.778;2023-11-21T12:39:06;77582.56;;;-141.21;94.24
67697;BME280;54486;51.442;6.778;2023-11-21T12:41:37;77590.56;;;-141.21;93.65
67697;BME280;54486;51.442;6.778;2023-11-21T12:44:11;77594.56;;;-141.21;93.48
67697;BME280;54486;51.442;6.778;2023-11-21T12:46:42;77602.56;;;-141.21;93.42